sensor_id;sensor_type;location;lat;lon;timestamp;temperature;humidity
24560;DHT22;12727;49.934;8.656;2023-04-24T00:00:54;11.90;99.90
24560;DHT22;12727;49.934;8.656;2023-04-24T00:03:24;11.90;99.90
24560;DHT22;12727;49.934;8.656;2023-04-24T00:05:50;11.90;99.90
24560;DHT22;12727;49.934;8.656;2023-04-24T00:08:16;11.90;99.90
24560;DHT22;12727;49.934;8.656;2023-04-24T00:10:42;12.00;99.90
24560;DHT22;12727;49.934;8.656;2023-04-24T00:13:08;12.00;99.90
24560;DHT22;12727;49.934;8.656;2023-04-24T00:15:34;11.90;99.90
24560;DHT22;12727;49.934;8.656;2023-04-24T00:17:59;12.00;99.90
24560;DHT22;12727;49.934;8.656;2023-04-24T00:20:26;12.00;99.90
24560;DHT22;12727;49.934;8.656;2023-04-24T00:22:53;11.90;99.90
24560;DHT22;12727;49.934;8.656;2023-04-24T00:25:19;11.90;99.90
24560;DHT22;12727;49.934;8.656;2023-04-24T00:27:44;11.90;99.90
24560;DHT22;12727;49.934;8.656;2023-04-24T00:30:10;11.90;99.90
24560;DHT22;12727;49.934;8.656;2023-04-24T00:32:35;12.00;99.90
24560;DHT22;12727;49.934;8.656;2023-04-24T00:35:01;12.00;99.90
24560;DHT22;12727;49.934;8.656;2023-04-24T00:37:27;12.00;99.90
24560;DHT22;12727;49.934;8.656;2023-04-24T00:39:52;11.90;99.90
24560;DHT22;12727;49.934;8.656;2023-04-24T00:42:18;11.90;99.90
24560;DHT22;12727;49.934;8.656;2023-04-24T00:44:43;11.90;99.90
24560;DHT22;12727;49.934;8.656;2023-04-24T00:47:10;11.90;99.90
24560;DHT22;12727;49.934;8.656;2023-04-24T00:49:37;11.80;99.90
24560;DHT22;12727;49.934;8.656;2023-04-24T00:52:02;11.80;99.90
24560;DHT22;12727;49.934;8.656;2023-04-24T00:54:32;11.80;99.90
24560;DHT22;12727;49.934;8.656;2023-04-24T00:56:58;11.70;99.90
24560;DHT22;12727;49.934;8.656;2023-04-24T00:59:24;11.70;99.90
24560;DHT22;12727;49.934;8.656;2023-04-24T01:01:50;11.70;99.90
24560;DHT22;12727;49.934;8.656;2023-04-24T01:04:17;11.70;99.90
24560;DHT22;12727;49.934;8.656;2023-04-24T01:06:44;11.70;99.90
24560;DHT22;12727;49.934;8.656;2023-04-24T01:09:11;11.70;99.90
24560;DHT22;12727;49.934;8.656;2023-04-24T01:11:37;11.80;99.90
24560;DHT22;12727;49.934;8.656;2023-04-24T01:14:03;11.80;99.90
24560;DHT22;12727;49.934;8.656;2023-04-24T01:16:29;11.70;99.90
24560;DHT22;12727;49.934;8.656;2023-04-24T01:18:54;11.70;99.90
24560;DHT22;12727;49.934;8.656;2023-04-24T01:21:21;11.70;99.90
24560;DHT22;12727;49.934;8.656;2023-04-24T01:23:48;11.70;99.90
24560;DHT22;12727;49.934;8.656;2023-04-24T01:26:17;11.70;99.90
24560;DHT22;12727;49.934;8.656;2023-04-24T01:28:42;11.70;99.90
24560;DHT22;12727;49.934;8.656;2023-04-24T01:31:08;11.60;99.90
24560;DHT22;12727;49.934;8.656;2023-04-24T01:33:34;11.50;99.90
24560;DHT22;12727;49.934;8.656;2023-04-24T01:35:59;11.60;99.90
24560;DHT22;12727;49.934;8.656;2023-04-24T01:38:25;11.50;99.90
24560;DHT22;12727;49.934;8.656;2023-04-24T01:40:51;11.50;99.90
24560;DHT22;12727;49.934;8.656;2023-04-24T01:43:17;11.50;99.90
24560;DHT22;12727;49.934;8.656;2023-04-24T01:45:42;11.50;99.90
24560;DHT22;12727;49.934;8.656;2023-04-24T01:48:08;11.50;99.90
24560;DHT22;12727;49.934;8.656;2023-04-24T01:50:34;11.60;99.90
24560;DHT22;12727;49.934;8.656;2023-04-24T01:52:59;11.60;99.90
24560;DHT22;12727;49.934;8.656;2023-04-24T01:55:25;11.70;99.90
24560;DHT22;12727;49.934;8.656;2023-04-24T01:57:52;11.70;99.90
24560;DHT22;12727;49.934;8.656;2023-04-24T02:00:21;11.70;99.90
24560;DHT22;12727;49.934;8.656;2023-04-24T02:02:46;11.70;99.90
24560;DHT22;12727;49.934;8.656;2023-04-24T02:05:12;11.70;99.90
24560;DHT22;12727;49.934;8.656;2023-04-24T02:07:38;11.60;99.90
24560;DHT22;12727;49.934;8.656;2023-04-24T02:10:04;11.70;99.90
24560;DHT22;12727;49.934;8.656;2023-04-24T02:12:30;11.70;99.90
24560;DHT22;12727;49.934;8.656;2023-04-24T02:14:55;11.70;99.90
24560;DHT22;12727;49.934;8.656;2023-04-24T02:17:21;11.70;99.90
24560;DHT22;12727;49.934;8.656;2023-04-24T02:19:47;11.70;99.90
24560;DHT22;12727;49.934;8.656;2023-04-24T02:22:12;11.70;99.90
24560;DHT22;12727;49.934;8.656;2023-04-24T02:24:38;11.70;99.90
24560;DHT22;12727;49.934;8.656;2023-04-24T02:27:04;11.70;99.90
24560;DHT22;12727;49.934;8.656;2023-04-24T02:29:30;11.60;99.90
24560;DHT22;12727;49.934;8.656;2023-04-24T02:31:56;11.60;99.90
24560;DHT22;12727;49.934;8.656;2023-04-24T02:34:22;11.50;99.90
24560;DHT22;12727;49.934;8.656;2023-04-24T02:36:48;11.50;99.90
24560;DHT22;12727;49.934;8.656;2023-04-24T02:39:14;11.50;99.90
24560;DHT22;12727;49.934;8.656;2023-04-24T02:41:45;11.40;99.90
24560;DHT22;12727;49.934;8.656;2023-04-24T02:44:10;11.30;99.90
24560;DHT22;12727;49.934;8.656;2023-04-24T02:46:36;11.20;99.90
24560;DHT22;12727;49.934;8.656;2023-04-24T02:49:01;11.10;99.90
24560;DHT22;12727;49.934;8.656;2023-04-24T02:51:28;11.20;99.90
24560;DHT22;12727;49.934;8.656;2023-04-24T02:53:53;11.10;99.90
24560;DHT22;12727;49.934;8.656;2023-04-24T02:56:19;11.10;99.90
24560;DHT22;12727;49.934;8.656;2023-04-24T02:58:44;11.10;99.90
24560;DHT22;12727;49.934;8.656;2023-04-24T03:01:10;11.10;99.90
24560;DHT22;12727;49.934;8.656;2023-04-24T03:03:37;11.20;99.90
24560;DHT22;12727;49.934;8.656;2023-04-24T03:06:03;11.10;99.90
24560;DHT22;12727;49.934;8.656;2023-04-24T03:08:31;11.30;99.90
24560;DHT22;12727;49.934;8.656;2023-04-24T03:10:56;11.20;99.90
24560;DHT22;12727;49.934;8.656;2023-04-24T03:13:22;11.20;99.90
24560;DHT22;12727;49.934;8.656;2023-04-24T03:15:48;11.20;99.90
24560;DHT22;12727;49.934;8.656;2023-04-24T03:18:13;11.10;99.90
24560;DHT22;12727;49.934;8.656;2023-04-24T03:20:39;11.10;99.90
24560;DHT22;12727;49.934;8.656;2023-04-24T03:23:05;11.00;99.90
24560;DHT22;12727;49.934;8.656;2023-04-24T03:25:30;11.00;99.90
24560;DHT22;12727;49.934;8.656;2023-04-24T03:27:56;11.00;99.90
24560;DHT22;12727;49.934;8.656;2023-04-24T03:30:21;10.90;99.90
24560;DHT22;12727;49.934;8.656;2023-04-24T03:32:47;10.90;99.90
24560;DHT22;12727;49.934;8.656;2023-04-24T03:35:12;10.90;99.90
24560;DHT22;12727;49.934;8.656;2023-04-24T03:37:38;10.80;99.90
24560;DHT22;12727;49.934;8.656;2023-04-24T03:40:04;10.70;99.90
24560;DHT22;12727;49.934;8.656;2023-04-24T03:42:31;10.70;99.90
24560;DHT22;12727;49.934;8.656;2023-04-24T03:44:56;10.70;99.90
24560;DHT22;12727;49.934;8.656;2023-04-24T03:47:22;10.60;99.90
24560;DHT22;12727;49.934;8.656;2023-04-24T03:49:47;10.60;99.90
24560;DHT22;12727;49.934;8.656;2023-04-24T03:52:13;10.50;99.90
24560;DHT22;12727;49.934;8.656;2023-04-24T03:54:38;10.50;99.90
24560;DHT22;12727;49.934;8.656;2023-04-24T03:57:04;10.50;99.90
24560;DHT22;12727;49.934;8.656;2023-04-24T03:59:30;10.40;99.90
24560;DHT22;12727;49.934;8.656;2023-04-24T04:01:56;10.40;99.90
24560;DHT22;12727;49.934;8.656;2023-04-24T04:04:21;10.40;99.90
24560;DHT22;12727;49.934;8.656;2023-04-24T04:06:47;10.30;99.90
24560;DHT22;12727;49.934;8.656;2023-04-24T04:09:13;10.30;99.90
24560;DHT22;12727;49.934;8.656;2023-04-24T04:11:39;10.30;99.90
24560;DHT22;12727;49.934;8.656;2023-04-24T04:14:04;10.30;99.90
24560;DHT22;12727;49.934;8.656;2023-04-24T04:16:30;10.20;99.90
24560;DHT22;12727;49.934;8.656;2023-04-24T04:18:56;10.20;99.90
24560;DHT22;12727;49.934;8.656;2023-04-24T04:21:22;10.10;99.90
24560;DHT22;12727;49.934;8.656;2023-04-24T04:23:47;10.10;99.90
24560;DHT22;12727;49.934;8.656;2023-04-24T04:26:13;10.00;99.90
24560;DHT22;12727;49.934;8.656;2023-04-24T04:28:39;10.00;99.90
24560;DHT22;12727;49.934;8.656;2023-04-24T04:31:05;10.00;99.90
24560;DHT22;12727;49.934;8.656;2023-04-24T04:33:31;10.00;99.90
24560;DHT22;12727;49.934;8.656;2023-04-24T04:35:56;9.90;99.90
24560;DHT22;12727;49.934;8.656;2023-04-24T04:38:22;9.90;99.90
24560;DHT22;12727;49.934;8.656;2023-04-24T04:40:48;9.90;99.90
24560;DHT22;12727;49.934;8.656;2023-04-24T04:43:14;9.80;99.90
24560;DHT22;12727;49.934;8.656;2023-04-24T04:45:40;9.80;99.90
24560;DHT22;12727;49.934;8.656;2023-04-24T04:48:08;9.80;99.90
24560;DHT22;12727;49.934;8.656;2023-04-24T04:50:35;9.70;99.90
24560;DHT22;12727;49.934;8.656;2023-04-24T04:53:01;9.70;99.90
24560;DHT22;12727;49.934;8.656;2023-04-24T04:55:26;9.70;99.90
24560;DHT22;12727;49.934;8.656;2023-04-24T04:57:52;9.70;99.90
24560;DHT22;12727;49.934;8.656;2023-04-24T05:00:18;9.60;99.90
24560;DHT22;12727;49.934;8.656;2023-04-24T05:02:43;9.60;99.90
24560;DHT22;12727;49.934;8.656;2023-04-24T05:05:09;9.60;99.90
24560;DHT22;12727;49.934;8.656;2023-04-24T05:07:35;9.50;99.90
24560;DHT22;12727;49.934;8.656;2023-04-24T05:10:01;9.70;99.90
24560;DHT22;12727;49.934;8.656;2023-04-24T05:12:26;9.70;99.90
24560;DHT22;12727;49.934;8.656;2023-04-24T05:14:52;9.70;99.90
24560;DHT22;12727;49.934;8.656;2023-04-24T05:17:18;9.60;99.90
24560;DHT22;12727;49.934;8.656;2023-04-24T05:19:43;9.70;99.90
24560;DHT22;12727;49.934;8.656;2023-04-24T05:22:09;9.70;99.90
24560;DHT22;12727;49.934;8.656;2023-04-24T05:24:35;9.90;99.90
24560;DHT22;12727;49.934;8.656;2023-04-24T05:27:01;9.90;99.90
24560;DHT22;12727;49.934;8.656;2023-04-24T05:29:28;9.90;99.90
24560;DHT22;12727;49.934;8.656;2023-04-24T05:31:56;10.10;99.90
24560;DHT22;12727;49.934;8.656;2023-04-24T05:34:21;10.20;99.90
24560;DHT22;12727;49.934;8.656;2023-04-24T05:36:47;10.30;99.90
24560;DHT22;12727;49.934;8.656;2023-04-24T05:39:13;10.30;99.90
24560;DHT22;12727;49.934;8.656;2023-04-24T05:41:39;10.30;99.90
24560;DHT22;12727;49.934;8.656;2023-04-24T05:44:05;10.40;99.90
24560;DHT22;12727;49.934;8.656;2023-04-24T05:46:30;10.40;99.90
24560;DHT22;12727;49.934;8.656;2023-04-24T05:48:56;10.50;99.90
24560;DHT22;12727;49.934;8.656;2023-04-24T05:51:21;10.60;99.90
24560;DHT22;12727;49.934;8.656;2023-04-24T05:53:49;10.80;99.90
24560;DHT22;12727;49.934;8.656;2023-04-24T05:56:15;10.90;99.90
24560;DHT22;12727;49.934;8.656;2023-04-24T05:58:41;11.00;99.90
24560;DHT22;12727;49.934;8.656;2023-04-24T06:01:06;11.00;99.90
24560;DHT22;12727;49.934;8.656;2023-04-24T06:03:32;11.00;99.90
24560;DHT22;12727;49.934;8.656;2023-04-24T06:05:58;11.10;99.90
24560;DHT22;12727;49.934;8.656;2023-04-24T06:08:23;11.10;99.90
24560;DHT22;12727;49.934;8.656;2023-04-24T06:10:49;11.00;99.90
24560;DHT22;12727;49.934;8.656;2023-04-24T06:13:15;11.00;99.90
24560;DHT22;12727;49.934;8.656;2023-04-24T06:15:41;11.00;99.90
24560;DHT22;12727;49.934;8.656;2023-04-24T06:18:07;11.00;99.90
24560;DHT22;12727;49.934;8.656;2023-04-24T06:20:32;11.00;99.90
24560;DHT22;12727;49.934;8.656;2023-04-24T06:22:58;11.00;99.90
24560;DHT22;12727;49.934;8.656;2023-04-24T06:25:28;11.00;99.90
24560;DHT22;12727;49.934;8.656;2023-04-24T06:27:54;11.00;99.90
24560;DHT22;12727;49.934;8.656;2023-04-24T06:30:20;11.20;99.90
24560;DHT22;12727;49.934;8.656;2023-04-24T06:32:46;11.40;99.90
24560;DHT22;12727;49.934;8.656;2023-04-24T06:35:11;11.70;99.90
24560;DHT22;12727;49.934;8.656;2023-04-24T06:37:39;11.90;99.90
24560;DHT22;12727;49.934;8.656;2023-04-24T06:40:06;11.90;99.90
24560;DHT22;12727;49.934;8.656;2023-04-24T06:42:31;12.00;99.90
24560;DHT22;12727;49.934;8.656;2023-04-24T06:44:57;12.40;99.90
24560;DHT22;12727;49.934;8.656;2023-04-24T06:47:22;12.40;99.90
24560;DHT22;12727;49.934;8.656;2023-04-24T06:49:48;12.60;99.90
24560;DHT22;12727;49.934;8.656;2023-04-24T06:52:16;12.80;99.90
24560;DHT22;12727;49.934;8.656;2023-04-24T06:54:42;12.70;99.90
24560;DHT22;12727;49.934;8.656;2023-04-24T06:57:08;12.50;99.90
24560;DHT22;12727;49.934;8.656;2023-04-24T06:59:33;12.20;99.90
24560;DHT22;12727;49.934;8.656;2023-04-24T07:01:59;12.00;99.90
24560;DHT22;12727;49.934;8.656;2023-04-24T07:04:24;12.10;99.90
24560;DHT22;12727;49.934;8.656;2023-04-24T07:06:50;12.10;99.90
24560;DHT22;12727;49.934;8.656;2023-04-24T07:09:16;12.20;99.90
24560;DHT22;12727;49.934;8.656;2023-04-24T07:11:44;12.00;99.90
24560;DHT22;12727;49.934;8.656;2023-04-24T07:14:10;11.80;99.90
24560;DHT22;12727;49.934;8.656;2023-04-24T07:16:35;11.80;99.90
24560;DHT22;12727;49.934;8.656;2023-04-24T07:19:01;11.80;99.90
24560;DHT22;12727;49.934;8.656;2023-04-24T07:21:26;11.70;99.90
24560;DHT22;12727;49.934;8.656;2023-04-24T07:23:53;11.70;99.90
24560;DHT22;12727;49.934;8.656;2023-04-24T07:26:20;11.60;99.90
24560;DHT22;12727;49.934;8.656;2023-04-24T07:28:46;11.50;99.90
24560;DHT22;12727;49.934;8.656;2023-04-24T07:31:11;11.50;99.90
24560;DHT22;12727;49.934;8.656;2023-04-24T07:33:37;11.60;99.90
24560;DHT22;12727;49.934;8.656;2023-04-24T07:36:03;11.40;99.90
24560;DHT22;12727;49.934;8.656;2023-04-24T07:38:30;11.30;99.90
24560;DHT22;12727;49.934;8.656;2023-04-24T07:40:55;11.40;99.90
24560;DHT22;12727;49.934;8.656;2023-04-24T07:43:21;11.60;99.90
24560;DHT22;12727;49.934;8.656;2023-04-24T07:45:47;11.70;99.90
24560;DHT22;12727;49.934;8.656;2023-04-24T07:48:13;11.80;99.90
24560;DHT22;12727;49.934;8.656;2023-04-24T07:50:42;11.70;99.90
24560;DHT22;12727;49.934;8.656;2023-04-24T07:53:07;11.80;99.90
24560;DHT22;12727;49.934;8.656;2023-04-24T07:55:33;11.90;99.90
24560;DHT22;12727;49.934;8.656;2023-04-24T07:57:59;12.00;99.90
24560;DHT22;12727;49.934;8.656;2023-04-24T08:00:24;12.40;99.90
24560;DHT22;12727;49.934;8.656;2023-04-24T08:02:50;13.00;99.70
24560;DHT22;12727;49.934;8.656;2023-04-24T08:05:15;13.30;98.00
24560;DHT22;12727;49.934;8.656;2023-04-24T08:07:41;13.30;97.80
24560;DHT22;12727;49.934;8.656;2023-04-24T08:10:10;13.10;97.30
24560;DHT22;12727;49.934;8.656;2023-04-24T08:12:36;12.80;95.80
24560;DHT22;12727;49.934;8.656;2023-04-24T08:15:02;12.70;96.10
24560;DHT22;12727;49.934;8.656;2023-04-24T08:17:27;13.60;96.20
24560;DHT22;12727;49.934;8.656;2023-04-24T08:19:53;14.20;94.10
24560;DHT22;12727;49.934;8.656;2023-04-24T08:22:26;14.00;92.20
24560;DHT22;12727;49.934;8.656;2023-04-24T08:24:52;13.70;94.40
24560;DHT22;12727;49.934;8.656;2023-04-24T08:27:18;13.90;93.70
24560;DHT22;12727;49.934;8.656;2023-04-24T08:29:44;14.50;92.20
24560;DHT22;12727;49.934;8.656;2023-04-24T08:32:09;14.90;90.30
24560;DHT22;12727;49.934;8.656;2023-04-24T08:34:35;15.00;88.10
24560;DHT22;12727;49.934;8.656;2023-04-24T08:37:00;15.00;90.20
24560;DHT22;12727;49.934;8.656;2023-04-24T08:39:26;15.30;88.90
24560;DHT22;12727;49.934;8.656;2023-04-24T08:41:52;15.80;87.00
24560;DHT22;12727;49.934;8.656;2023-04-24T08:44:19;15.70;80.70
24560;DHT22;12727;49.934;8.656;2023-04-24T08:46:47;15.10;82.90
24560;DHT22;12727;49.934;8.656;2023-04-24T08:49:14;14.80;85.50
24560;DHT22;12727;49.934;8.656;2023-04-24T08:51:44;14.30;86.60
24560;DHT22;12727;49.934;8.656;2023-04-24T08:54:12;14.00;88.90
24560;DHT22;12727;49.934;8.656;2023-04-24T08:56:38;14.00;90.20
24560;DHT22;12727;49.934;8.656;2023-04-24T08:59:06;13.60;90.30
24560;DHT22;12727;49.934;8.656;2023-04-24T09:01:33;13.50;91.20
24560;DHT22;12727;49.934;8.656;2023-04-24T09:04:02;13.20;91.10
24560;DHT22;12727;49.934;8.656;2023-04-24T09:06:29;13.00;91.50
24560;DHT22;12727;49.934;8.656;2023-04-24T09:08:56;13.00;91.60
24560;DHT22;12727;49.934;8.656;2023-04-24T09:11:24;13.10;91.90
24560;DHT22;12727;49.934;8.656;2023-04-24T09:13:52;12.90;90.70
24560;DHT22;12727;49.934;8.656;2023-04-24T09:16:19;12.80;92.00
24560;DHT22;12727;49.934;8.656;2023-04-24T09:18:45;12.70;91.10
24560;DHT22;12727;49.934;8.656;2023-04-24T09:21:10;12.60;91.60
24560;DHT22;12727;49.934;8.656;2023-04-24T09:23:36;12.50;91.50
24560;DHT22;12727;49.934;8.656;2023-04-24T09:26:03;12.40;91.80
24560;DHT22;12727;49.934;8.656;2023-04-24T09:28:32;12.30;92.30
24560;DHT22;12727;49.934;8.656;2023-04-24T09:31:05;12.20;92.30
24560;DHT22;12727;49.934;8.656;2023-04-24T09:33:31;12.00;92.60
24560;DHT22;12727;49.934;8.656;2023-04-24T09:35:56;12.00;93.40
24560;DHT22;12727;49.934;8.656;2023-04-24T09:41:02;11.90;93.40
24560;DHT22;12727;49.934;8.656;2023-04-24T09:43:28;12.00;93.20
24560;DHT22;12727;49.934;8.656;2023-04-24T09:45:56;12.00;93.50
24560;DHT22;12727;49.934;8.656;2023-04-24T09:48:36;12.10;93.50
24560;DHT22;12727;49.934;8.656;2023-04-24T09:51:04;12.10;93.50
24560;DHT22;12727;49.934;8.656;2023-04-24T09:53:32;12.00;93.40
24560;DHT22;12727;49.934;8.656;2023-04-24T09:56:08;12.00;93.30
24560;DHT22;12727;49.934;8.656;2023-04-24T09:58:35;12.00;93.40
24560;DHT22;12727;49.934;8.656;2023-04-24T10:01:01;12.00;93.80
24560;DHT22;12727;49.934;8.656;2023-04-24T10:03:30;12.20;94.10
24560;DHT22;12727;49.934;8.656;2023-04-24T10:06:00;12.20;93.60
24560;DHT22;12727;49.934;8.656;2023-04-24T10:08:26;12.20;93.30
24560;DHT22;12727;49.934;8.656;2023-04-24T10:10:58;12.20;93.80
24560;DHT22;12727;49.934;8.656;2023-04-24T10:13:25;12.30;93.80
24560;DHT22;12727;49.934;8.656;2023-04-24T10:15:51;12.40;94.00
24560;DHT22;12727;49.934;8.656;2023-04-24T10:18:17;12.40;94.10
24560;DHT22;12727;49.934;8.656;2023-04-24T10:20:43;12.50;94.60
24560;DHT22;12727;49.934;8.656;2023-04-24T10:23:08;12.40;94.50
24560;DHT22;12727;49.934;8.656;2023-04-24T10:25:35;12.30;94.60
24560;DHT22;12727;49.934;8.656;2023-04-24T10:28:02;12.30;94.90
24560;DHT22;12727;49.934;8.656;2023-04-24T10:30:33;12.20;94.60
24560;DHT22;12727;49.934;8.656;2023-04-24T10:33:03;12.30;94.90
24560;DHT22;12727;49.934;8.656;2023-04-24T10:35:42;12.30;95.30
24560;DHT22;12727;49.934;8.656;2023-04-24T10:38:13;12.50;94.70
24560;DHT22;12727;49.934;8.656;2023-04-24T10:40:39;13.10;93.90
24560;DHT22;12727;49.934;8.656;2023-04-24T10:43:07;14.00;92.70
24560;DHT22;12727;49.934;8.656;2023-04-24T10:45:36;14.60;91.50
24560;DHT22;12727;49.934;8.656;2023-04-24T10:50:29;14.00;92.10
24560;DHT22;12727;49.934;8.656;2023-04-24T10:53:06;13.90;91.90
24560;DHT22;12727;49.934;8.656;2023-04-24T10:55:51;13.60;92.20
24560;DHT22;12727;49.934;8.656;2023-04-24T10:58:25;13.30;93.00
24560;DHT22;12727;49.934;8.656;2023-04-24T11:01:00;13.00;93.10
24560;DHT22;12727;49.934;8.656;2023-04-24T11:03:31;12.80;93.90
24560;DHT22;12727;49.934;8.656;2023-04-24T11:06:06;12.80;94.90
24560;DHT22;12727;49.934;8.656;2023-04-24T11:09:01;12.50;96.20
24560;DHT22;12727;49.934;8.656;2023-04-24T11:11:29;12.20;97.90
24560;DHT22;12727;49.934;8.656;2023-04-24T11:18:57;11.30;99.90
24560;DHT22;12727;49.934;8.656;2023-04-24T11:21:25;11.10;99.90
24560;DHT22;12727;49.934;8.656;2023-04-24T11:23:56;10.80;99.90
24560;DHT22;12727;49.934;8.656;2023-04-24T11:26:22;10.80;99.90
24560;DHT22;12727;49.934;8.656;2023-04-24T11:29:06;10.90;99.90
24560;DHT22;12727;49.934;8.656;2023-04-24T11:31:44;10.90;99.90
24560;DHT22;12727;49.934;8.656;2023-04-24T11:34:15;10.80;99.90
24560;DHT22;12727;49.934;8.656;2023-04-24T11:36:48;10.80;99.90
24560;DHT22;12727;49.934;8.656;2023-04-24T11:39:15;10.70;99.90
24560;DHT22;12727;49.934;8.656;2023-04-24T11:41:40;10.70;99.90
24560;DHT22;12727;49.934;8.656;2023-04-24T11:44:07;10.50;99.90
24560;DHT22;12727;49.934;8.656;2023-04-24T11:46:33;10.40;99.90
24560;DHT22;12727;49.934;8.656;2023-04-24T11:48:59;10.40;99.90
24560;DHT22;12727;49.934;8.656;2023-04-24T11:51:27;10.40;99.90
24560;DHT22;12727;49.934;8.656;2023-04-24T11:53:56;10.40;99.90
24560;DHT22;12727;49.934;8.656;2023-04-24T11:56:25;10.40;99.90
24560;DHT22;12727;49.934;8.656;2023-04-24T11:58:53;10.50;99.90
24560;DHT22;12727;49.934;8.656;2023-04-24T12:01:20;10.70;99.90
24560;DHT22;12727;49.934;8.656;2023-04-24T12:03:50;10.60;99.90
24560;DHT22;12727;49.934;8.656;2023-04-24T12:06:18;10.70;99.90
24560;DHT22;12727;49.934;8.656;2023-04-24T12:08:47;10.80;99.90
24560;DHT22;12727;49.934;8.656;2023-04-24T12:11:15;11.00;99.90
24560;DHT22;12727;49.934;8.656;2023-04-24T12:13:42;11.20;99.90
24560;DHT22;12727;49.934;8.656;2023-04-24T12:16:07;11.40;99.90
24560;DHT22;12727;49.934;8.656;2023-04-24T12:18:33;11.40;99.90
24560;DHT22;12727;49.934;8.656;2023-04-24T12:21:18;11.70;99.90
24560;DHT22;12727;49.934;8.656;2023-04-24T12:23:44;12.00;99.90
24560;DHT22;12727;49.934;8.656;2023-04-24T12:26:11;12.10;99.90
24560;DHT22;12727;49.934;8.656;2023-04-24T12:28:38;12.50;99.90
24560;DHT22;12727;49.934;8.656;2023-04-24T12:31:04;12.80;99.90
24560;DHT22;12727;49.934;8.656;2023-04-24T12:33:35;12.90;99.90
24560;DHT22;12727;49.934;8.656;2023-04-24T12:36:01;13.00;99.90
24560;DHT22;12727;49.934;8.656;2023-04-24T12:38:27;13.00;99.90
24560;DHT22;12727;49.934;8.656;2023-04-24T12:41:08;13.20;99.90
24560;DHT22;12727;49.934;8.656;2023-04-24T12:43:35;13.20;99.90
24560;DHT22;12727;49.934;8.656;2023-04-24T12:46:01;13.00;99.90
24560;DHT22;12727;49.934;8.656;2023-04-24T12:48:27;12.70;99.90
24560;DHT22;12727;49.934;8.656;2023-04-24T12:50:53;12.70;99.90
24560;DHT22;12727;49.934;8.656;2023-04-24T12:53:18;12.60;99.90
24560;DHT22;12727;49.934;8.656;2023-04-24T12:55:44;12.40;99.90
24560;DHT22;12727;49.934;8.656;2023-04-24T12:58:10;12.30;99.90
24560;DHT22;12727;49.934;8.656;2023-04-24T13:00:38;12.10;99.90
24560;DHT22;12727;49.934;8.656;2023-04-24T13:03:04;12.00;99.90
24560;DHT22;12727;49.934;8.656;2023-04-24T13:05:30;11.90;99.90
24560;DHT22;12727;49.934;8.656;2023-04-24T13:07:57;11.90;99.90
24560;DHT22;12727;49.934;8.656;2023-04-24T13:10:22;11.90;99.90
24560;DHT22;12727;49.934;8.656;2023-04-24T13:12:48;12.20;99.90
24560;DHT22;12727;49.934;8.656;2023-04-24T13:15:14;12.40;99.90
24560;DHT22;12727;49.934;8.656;2023-04-24T13:17:39;12.50;99.90
24560;DHT22;12727;49.934;8.656;2023-04-24T13:20:05;12.70;99.90
24560;DHT22;12727;49.934;8.656;2023-04-24T13:22:31;13.00;99.90
24560;DHT22;12727;49.934;8.656;2023-04-24T13:24:57;13.40;99.90
24560;DHT22;12727;49.934;8.656;2023-04-24T13:27:22;13.80;99.90
24560;DHT22;12727;49.934;8.656;2023-04-24T13:29:48;14.00;99.80
24560;DHT22;12727;49.934;8.656;2023-04-24T13:32:13;13.80;97.80
24560;DHT22;12727;49.934;8.656;2023-04-24T13:34:39;13.80;97.30
24560;DHT22;12727;49.934;8.656;2023-04-24T13:37:04;14.10;98.40
24560;DHT22;12727;49.934;8.656;2023-04-24T13:39:30;14.00;94.40
24560;DHT22;12727;49.934;8.656;2023-04-24T13:41:57;14.00;93.60
24560;DHT22;12727;49.934;8.656;2023-04-24T13:44:23;13.90;94.10
24560;DHT22;12727;49.934;8.656;2023-04-24T13:46:51;13.80;93.20
24560;DHT22;12727;49.934;8.656;2023-04-24T13:49:18;13.50;92.00
24560;DHT22;12727;49.934;8.656;2023-04-24T13:51:44;13.40;92.90
24560;DHT22;12727;49.934;8.656;2023-04-24T13:54:11;13.20;92.40
24560;DHT22;12727;49.934;8.656;2023-04-24T13:56:37;13.00;93.30
24560;DHT22;12727;49.934;8.656;2023-04-24T13:59:02;13.00;93.40
24560;DHT22;12727;49.934;8.656;2023-04-24T14:01:28;12.90;93.90
24560;DHT22;12727;49.934;8.656;2023-04-24T14:03:54;12.70;93.20
24560;DHT22;12727;49.934;8.656;2023-04-24T14:06:21;12.60;93.00
24560;DHT22;12727;49.934;8.656;2023-04-24T14:08:47;12.70;93.80
24560;DHT22;12727;49.934;8.656;2023-04-24T14:11:13;12.70;94.20
24560;DHT22;12727;49.934;8.656;2023-04-24T14:13:41;12.80;94.60
24560;DHT22;12727;49.934;8.656;2023-04-24T14:16:07;13.00;95.20
24560;DHT22;12727;49.934;8.656;2023-04-24T14:18:32;13.10;95.20
24560;DHT22;12727;49.934;8.656;2023-04-24T14:20:58;13.10;94.60
24560;DHT22;12727;49.934;8.656;2023-04-24T14:23:24;13.20;95.20
24560;DHT22;12727;49.934;8.656;2023-04-24T14:25:50;13.20;92.80
24560;DHT22;12727;49.934;8.656;2023-04-24T14:28:18;13.00;91.70
24560;DHT22;12727;49.934;8.656;2023-04-24T14:30:44;12.90;90.90
24560;DHT22;12727;49.934;8.656;2023-04-24T14:33:10;12.90;91.20
24560;DHT22;12727;49.934;8.656;2023-04-24T14:35:36;13.00;91.60
24560;DHT22;12727;49.934;8.656;2023-04-24T14:38:02;13.00;91.90
24560;DHT22;12727;49.934;8.656;2023-04-24T14:40:28;13.10;91.00
24560;DHT22;12727;49.934;8.656;2023-04-24T14:42:53;13.10;91.50
24560;DHT22;12727;49.934;8.656;2023-04-24T14:45:19;13.10;91.40
24560;DHT22;12727;49.934;8.656;2023-04-24T14:47:45;13.10;91.70
24560;DHT22;12727;49.934;8.656;2023-04-24T14:50:10;13.00;91.80
24560;DHT22;12727;49.934;8.656;2023-04-24T14:52:37;13.00;92.00
24560;DHT22;12727;49.934;8.656;2023-04-24T14:55:04;13.10;92.20
24560;DHT22;12727;49.934;8.656;2023-04-24T14:57:29;13.20;91.80
24560;DHT22;12727;49.934;8.656;2023-04-24T14:59:55;13.20;91.70
24560;DHT22;12727;49.934;8.656;2023-04-24T15:02:20;13.10;91.60
24560;DHT22;12727;49.934;8.656;2023-04-24T15:04:46;13.10;91.40
24560;DHT22;12727;49.934;8.656;2023-04-24T15:07:12;13.00;91.50
24560;DHT22;12727;49.934;8.656;2023-04-24T15:09:37;13.00;91.40
24560;DHT22;12727;49.934;8.656;2023-04-24T15:12:03;13.20;91.00
24560;DHT22;12727;49.934;8.656;2023-04-24T15:14:29;13.30;91.40
24560;DHT22;12727;49.934;8.656;2023-04-24T15:16:54;13.30;91.70
24560;DHT22;12727;49.934;8.656;2023-04-24T15:19:20;13.30;91.20
24560;DHT22;12727;49.934;8.656;2023-04-24T15:21:46;13.30;91.30
24560;DHT22;12727;49.934;8.656;2023-04-24T15:24:11;13.40;91.20
24560;DHT22;12727;49.934;8.656;2023-04-24T15:26:37;13.60;91.40
24560;DHT22;12727;49.934;8.656;2023-04-24T15:29:02;13.80;90.40
24560;DHT22;12727;49.934;8.656;2023-04-24T15:31:28;14.00;90.00
24560;DHT22;12727;49.934;8.656;2023-04-24T15:33:54;14.10;89.10
24560;DHT22;12727;49.934;8.656;2023-04-24T15:36:19;14.00;87.10
24560;DHT22;12727;49.934;8.656;2023-04-24T15:38:46;14.00;88.90